createdAt,value
2023-04-01T00:00:12.157Z,0.0000
2023-04-01T00:01:12.930Z,0.0000
2023-04-01T00:02:13.480Z,0.0000
2023-04-01T00:03:13.757Z,0.0000
2023-04-01T00:04:14.574Z,0.0000
2023-04-01T00:05:15.594Z,0.0000
2023-04-01T00:06:15.806Z,0.0000
2023-04-01T00:07:16.426Z,0.0000
2023-04-01T00:08:16.945Z,0.0000
2023-04-01T00:09:18.152Z,0.0000
2023-04-01T00:10:19.695Z,0.0000
2023-04-01T00:12:20.898Z,0.0000
2023-04-01T00:13:21.133Z,0.0000
2023-04-01T00:14:21.248Z,0.0000
2023-04-01T00:15:21.329Z,0.0000
2023-04-01T00:16:24.907Z,0.0000
2023-04-01T00:17:25.897Z,0.0000
2023-04-01T00:18:26.696Z,0.0000
2023-04-01T00:19:27.461Z,0.0000
2023-04-01T00:20:28.258Z,0.0000
2023-04-01T00:21:28.868Z,0.0000
2023-04-01T00:22:29.635Z,0.0000
2023-04-01T00:23:30.374Z,0.0000
2023-04-01T00:24:31.047Z,0.0000
2023-04-01T00:25:32.099Z,0.0000
2023-04-01T00:26:33.124Z,0.0000
2023-04-01T00:27:33.682Z,0.0000
2023-04-01T00:28:34.548Z,0.0000
2023-04-01T00:29:35.352Z,0.0000
2023-04-01T00:30:36.104Z,0.0000
2023-04-01T00:31:37.143Z,0.0000
2023-04-01T00:32:37.951Z,0.0000
2023-04-01T00:33:38.972Z,0.0000
2023-04-01T00:34:39.962Z,0.0000
2023-04-01T00:35:40.863Z,0.0000
2023-04-01T00:36:41.869Z,0.0000
2023-04-01T00:37:42.734Z,0.0000
2023-04-01T00:38:43.394Z,0.0000
2023-04-01T00:39:44.093Z,0.0000
2023-04-01T00:40:44.743Z,0.0000
2023-04-01T00:41:45.538Z,0.0000
2023-04-01T00:42:46.340Z,0.0000
2023-04-01T00:43:46.951Z,0.0000
2023-04-01T00:44:47.715Z,0.0000
2023-04-01T00:45:48.529Z,0.0000
2023-04-01T00:46:49.238Z,0.0000
2023-04-01T00:47:50.586Z,0.0000
2023-04-01T00:48:51.387Z,0.0000
2023-04-01T00:49:52.250Z,0.0000
2023-04-01T00:50:53.072Z,0.0000
2023-04-01T00:51:53.780Z,0.0000
2023-04-01T00:52:54.623Z,0.0000
2023-04-01T00:53:55.522Z,0.0000
2023-04-01T00:54:56.079Z,0.0000
2023-04-01T00:55:56.854Z,0.0000
2023-04-01T00:56:57.656Z,0.0000
2023-04-01T00:57:58.867Z,0.0000
2023-04-01T00:58:59.752Z,0.0000
2023-04-01T01:00:00.493Z,0.0000
2023-04-01T01:01:01.539Z,0.0000
2023-04-01T01:02:02.929Z,0.0000
2023-04-01T01:03:04.075Z,0.0000
2023-04-01T01:04:05.045Z,0.0000
2023-04-01T01:05:05.665Z,0.0000
2023-04-01T01:06:06.303Z,0.0000
2023-04-01T01:07:07.214Z,0.0000
2023-04-01T01:08:07.977Z,0.0000
2023-04-01T01:09:08.825Z,0.0000
2023-04-01T01:10:09.719Z,0.0000
2023-04-01T01:11:11.141Z,0.0000
2023-04-01T01:12:10.529Z,0.0000
2023-04-01T01:13:11.244Z,0.0000
2023-04-01T01:14:12.095Z,0.0000
2023-04-01T01:15:13.161Z,0.0000
2023-04-01T01:16:14.481Z,0.0000
2023-04-01T01:17:15.598Z,0.0000
2023-04-01T01:18:15.595Z,0.0000
2023-04-01T01:19:16.303Z,0.0000
2023-04-01T01:20:26.177Z,0.0000
2023-04-01T01:21:21.211Z,0.0000
2023-04-01T01:22:22.140Z,0.0000
2023-04-01T01:23:22.977Z,0.0000
2023-04-01T01:24:23.714Z,0.0000
2023-04-01T01:25:24.670Z,0.0000
2023-04-01T01:26:26.085Z,0.0000
2023-04-01T01:27:26.818Z,0.0000
2023-04-01T01:28:27.904Z,0.0000
2023-04-01T01:29:28.617Z,0.0000
2023-04-01T01:30:29.549Z,0.0000
2023-04-01T01:31:30.684Z,0.0000
2023-04-01T01:32:31.397Z,0.0000
2023-04-01T01:33:31.782Z,0.0000
2023-04-01T01:34:32.896Z,0.0000
2023-04-01T01:35:57.094Z,0.0000
2023-04-01T01:36:34.227Z,0.0000
2023-04-01T01:37:35.149Z,0.0000
2023-04-01T01:38:35.547Z,0.0000
2023-04-01T01:39:36.668Z,0.0000
2023-04-01T01:40:37.840Z,0.0000
2023-04-01T01:41:37.912Z,0.0000
2023-04-01T01:42:38.013Z,0.0000
2023-04-01T01:43:37.952Z,0.0000
2023-04-01T01:44:38.335Z,0.0000
2023-04-01T01:45:38.208Z,0.0000
2023-04-01T01:46:38.615Z,0.0000
2023-04-01T01:47:39.656Z,0.0000
2023-04-01T01:48:40.067Z,0.0000
2023-04-01T01:49:39.933Z,0.0000
2023-04-01T01:50:40.569Z,0.0000
2023-04-01T01:51:40.852Z,0.0000
2023-04-01T01:52:41.294Z,0.0000
2023-04-01T01:53:41.876Z,0.0000
2023-04-01T01:54:42.059Z,0.0000
2023-04-01T01:55:54.958Z,0.0000
2023-04-01T01:56:55.559Z,0.0000
2023-04-01T01:57:56.492Z,0.0000
2023-04-01T01:58:57.361Z,0.0000
2023-04-01T01:59:58.509Z,0.0000
2023-04-01T02:00:59.395Z,0.0000
2023-04-01T02:02:00.127Z,0.0000
2023-04-01T02:02:59.792Z,0.0000
2023-04-01T02:04:00.639Z,0.0000
2023-04-01T02:05:01.681Z,0.0000
2023-04-01T02:06:02.058Z,0.0000
2023-04-01T02:07:02.881Z,0.0000
2023-04-01T02:08:03.678Z,0.0000
2023-04-01T02:09:04.634Z,0.0000
2023-04-01T02:10:05.742Z,0.0000
2023-04-01T02:11:06.701Z,0.0000
2023-04-01T02:12:07.578Z,0.0000
2023-04-01T02:13:08.350Z,0.0000
2023-04-01T02:14:09.287Z,0.0000
2023-04-01T02:15:10.047Z,0.0000
2023-04-01T02:16:10.839Z,0.0000
2023-04-01T02:17:11.813Z,0.0000
2023-04-01T02:18:13.137Z,0.0000
2023-04-01T02:19:13.917Z,0.0000
2023-04-01T02:20:14.741Z,0.0000
2023-04-01T02:21:15.685Z,0.0000
2023-04-01T02:22:16.515Z,0.0000
2023-04-01T02:23:17.481Z,0.0000
2023-04-01T02:24:18.147Z,0.0000
2023-04-01T02:25:19.149Z,0.0000
2023-04-01T02:26:20.161Z,0.0000
2023-04-01T02:27:20.925Z,0.0000
2023-04-01T02:28:22.068Z,0.0000
2023-04-01T02:29:23.017Z,0.0000
2023-04-01T02:30:23.684Z,0.0000
2023-04-01T02:31:24.627Z,0.0000
2023-04-01T02:32:25.711Z,0.0000
2023-04-01T02:33:26.704Z,0.0000
2023-04-01T02:34:27.649Z,0.0000
2023-04-01T02:35:28.389Z,0.0000
2023-04-01T02:36:29.561Z,0.0000
2023-04-01T02:37:30.851Z,0.0000
2023-04-01T02:38:30.711Z,0.0000
2023-04-01T02:39:31.495Z,0.0000
2023-04-01T02:40:32.433Z,0.0000
2023-04-01T02:41:33.210Z,0.0000
2023-04-01T02:42:34.134Z,0.0000
2023-04-01T02:43:34.929Z,0.0000
2023-04-01T02:44:35.761Z,0.0000
2023-04-01T02:45:35.898Z,0.0000
2023-04-01T02:46:36.816Z,0.0000
2023-04-01T02:47:37.051Z,0.0000
2023-04-01T02:48:37.980Z,0.0000
2023-04-01T02:49:38.915Z,0.0000
2023-04-01T02:50:39.826Z,0.0000
2023-04-01T02:51:40.212Z,0.0000
2023-04-01T02:52:41.009Z,0.0000
2023-04-01T02:53:42.218Z,0.0000
2023-04-01T02:54:43.093Z,0.0000
2023-04-01T02:55:44.139Z,0.0000
2023-04-01T02:56:44.838Z,0.0000
2023-04-01T02:57:44.973Z,0.0000
2023-04-01T02:58:45.894Z,0.0000
2023-04-01T02:59:46.561Z,0.0000
2023-04-01T03:00:47.534Z,0.0000
2023-04-01T03:01:48.388Z,0.0000
2023-04-01T03:02:48.644Z,0.0000
2023-04-01T03:03:48.995Z,0.0000
2023-04-01T03:04:49.672Z,0.0000
2023-04-01T03:05:50.253Z,0.0000
2023-04-01T03:06:51.051Z,0.0000
2023-04-01T03:07:51.889Z,0.0000
2023-04-01T03:08:52.750Z,0.0000
2023-04-01T03:09:53.436Z,0.0000
2023-04-01T03:10:54.302Z,0.0000
2023-04-01T03:11:55.157Z,0.0000
2023-04-01T03:12:56.014Z,0.0000
2023-04-01T03:13:57.213Z,0.0000
2023-04-01T03:14:57.926Z,0.0000
2023-04-01T03:15:59.175Z,0.0000
2023-04-01T03:16:59.329Z,0.0000
2023-04-01T03:18:00.267Z,0.0000
2023-04-01T03:19:01.371Z,0.0000
2023-04-01T03:20:02.381Z,0.0000
2023-04-01T03:21:03.101Z,0.0000
2023-04-01T03:22:04.165Z,0.0000
2023-04-01T03:23:05.309Z,0.0000
2023-04-01T03:24:06.179Z,0.0000
2023-04-01T03:25:07.448Z,0.0000
2023-04-01T03:26:07.896Z,0.0000
2023-04-01T03:27:08.759Z,0.0000
2023-04-01T03:28:09.718Z,0.0000
2023-04-01T03:29:10.518Z,0.0000
2023-04-01T03:30:11.534Z,0.0000
2023-04-01T03:31:11.746Z,0.0000
2023-04-01T03:32:12.666Z,0.0000
2023-04-01T03:33:13.107Z,0.0000
2023-04-01T03:34:13.975Z,0.0000
2023-04-01T03:35:14.908Z,0.0000
2023-04-01T03:36:16.078Z,0.0000
2023-04-01T03:37:17.151Z,0.0000
2023-04-01T03:38:18.085Z,0.0000
2023-04-01T03:39:19.081Z,0.0000
2023-04-01T03:40:19.905Z,0.0000
2023-04-01T03:41:20.876Z,0.0000
2023-04-01T03:42:21.757Z,0.0000
2023-04-01T03:43:23.043Z,0.0000
2023-04-01T03:44:24.103Z,0.0000
2023-04-01T03:45:24.736Z,0.0000
2023-04-01T03:46:25.210Z,0.0000
2023-04-01T03:47:46.300Z,0.0000
2023-04-01T03:49:04.317Z,0.0000
2023-04-01T03:49:47.352Z,0.0000
2023-04-01T03:51:06.614Z,0.0000
2023-04-01T03:51:47.692Z,0.0000
2023-04-01T03:52:48.713Z,0.0000
2023-04-01T03:53:54.900Z,0.0000
2023-04-01T03:54:49.620Z,0.0000
2023-04-01T03:55:50.856Z,0.0000
2023-04-01T03:56:51.592Z,0.0000
2023-04-01T03:57:52.238Z,0.0000
2023-04-01T03:58:52.407Z,0.0000
2023-04-01T03:59:52.898Z,0.0000
2023-04-01T04:00:53.042Z,0.0000
2023-04-01T04:01:53.174Z,0.0000
2023-04-01T04:02:54.010Z,0.0000
2023-04-01T04:03:54.313Z,0.0000
2023-04-01T04:04:54.888Z,0.0000
2023-04-01T04:05:56.534Z,0.0000
2023-04-01T04:06:56.557Z,0.0000
2023-04-01T04:07:57.468Z,0.0000
2023-04-01T04:08:58.360Z,0.0000
2023-04-01T04:09:59.418Z,0.0000
2023-04-01T04:11:00.401Z,0.0000
2023-04-01T04:12:01.420Z,0.0000
2023-04-01T04:14:01.972Z,0.0000
2023-04-01T04:15:02.935Z,0.0000
2023-04-01T04:16:04.074Z,0.0000
2023-04-01T04:17:05.002Z,0.0000
2023-04-01T04:18:06.147Z,0.0000
2023-04-01T04:19:07.146Z,0.0000
2023-04-01T04:20:08.132Z,0.0000
2023-04-01T04:21:09.011Z,0.0000
2023-04-01T04:22:09.833Z,0.0000
2023-04-01T04:23:10.708Z,0.0000
2023-04-01T04:24:11.714Z,0.0000
2023-04-01T04:25:11.734Z,0.0000
2023-04-01T04:26:12.524Z,0.0000
2023-04-01T04:27:13.377Z,0.0000
2023-04-01T04:28:14.098Z,0.0000
2023-04-01T04:29:28.058Z,0.0000
2023-04-01T04:30:31.111Z,0.0000
2023-04-01T04:31:29.686Z,0.0000
2023-04-01T04:32:31.204Z,0.0000
2023-04-01T04:33:53.177Z,0.0000
2023-04-01T04:34:33.260Z,0.0000
2023-04-01T04:35:35.257Z,0.0000
2023-04-01T04:36:35.327Z,0.0000
2023-04-01T04:37:36.710Z,2.1333
2023-04-01T04:38:37.726Z,3.0000
2023-04-01T04:39:38.923Z,3.0000
2023-04-01T04:40:39.941Z,0.4667
2023-04-01T04:41:40.862Z,0.0000
2023-04-01T04:42:41.859Z,3.2000
2023-04-01T04:43:42.951Z,4.0000
2023-04-01T04:44:43.245Z,5.0952
2023-04-01T04:45:43.645Z,2.5238
2023-04-01T04:47:56.026Z,8.5806
2023-04-01T04:48:56.530Z,10.0000
2023-04-01T04:49:57.412Z,10.0000
2023-04-01T04:50:57.517Z,13.5227
2023-04-01T04:51:58.698Z,24.5333
2023-04-01T04:52:59.987Z,33.5778
2023-04-01T04:54:00.423Z,35.9250
2023-04-01T04:55:01.627Z,41.2143
2023-04-01T04:56:02.356Z,48.2955
2023-04-01T04:57:02.995Z,47.5455
2023-04-01T04:58:03.642Z,58.3636
2023-04-01T04:59:05.038Z,82.9778
2023-04-01T05:00:05.773Z,88.0800
2023-04-01T05:01:06.539Z,97.3793
2023-04-01T05:02:08.345Z,105.6047
2023-04-01T05:03:08.153Z,122.7674
2023-04-01T05:04:09.257Z,166.4773
2023-04-01T05:05:09.882Z,185.0227
2023-04-01T05:06:10.092Z,199.8571
2023-04-01T05:07:10.726Z,219.4048
2023-04-01T05:08:12.431Z,252.8636
2023-04-01T05:09:12.631Z,283.5349
2023-04-01T05:10:13.473Z,287.7333
2023-04-01T05:11:15.917Z,325.8636
2023-04-01T05:12:18.029Z,372.4483
2023-04-01T05:13:18.350Z,402.3488
2023-04-01T05:14:18.434Z,436.8182
2023-04-01T05:15:18.826Z,464.1818
2023-04-01T05:16:19.424Z,489.3864
2023-04-01T05:17:20.024Z,488.8182
2023-04-01T05:18:20.868Z,515.8409
2023-04-01T05:19:22.320Z,563.6667
2023-04-01T05:20:22.533Z,593.9091
2023-04-01T05:21:22.748Z,619.3864
2023-04-01T05:22:24.381Z,648.4889
2023-04-01T05:23:25.586Z,692.2273
2023-04-01T05:24:26.013Z,754.7500
2023-04-01T05:25:26.307Z,800.3409
2023-04-01T05:26:26.892Z,816.8864
2023-04-01T05:27:27.363Z,801.9318
2023-04-01T05:28:28.166Z,771.5227
2023-04-01T05:29:28.559Z,628.1818
2023-04-01T05:30:29.220Z,639.6136
2023-04-01T05:33:31.267Z,673.3571
2023-04-01T05:34:32.565Z,680.7045
2023-04-01T05:35:33.295Z,653.7273
2023-04-01T05:36:34.414Z,922.4418
2023-04-01T05:37:34.373Z,1096.6744
2023-04-01T05:38:35.319Z,1193.8636
2023-04-01T05:39:35.982Z,1314.8140
2023-04-01T05:40:35.576Z,1365.0000
2023-04-01T05:41:36.085Z,1754.4773
2023-04-01T05:42:37.646Z,1910.8409
2023-04-01T05:43:37.341Z,1920.6279
2023-04-01T05:44:38.120Z,2032.7727
2023-04-01T05:45:39.539Z,2244.9319
2023-04-01T05:46:39.940Z,2372.8181
2023-04-01T05:47:40.318Z,2263.4651
2023-04-01T05:48:40.905Z,2236.3257
2023-04-01T05:49:41.421Z,2350.7856
2023-04-01T05:50:42.504Z,2357.3777
2023-04-01T05:51:43.276Z,2571.5112
2023-04-01T05:52:43.717Z,2692.6538
2023-04-01T05:53:45.041Z,2711.3333
2023-04-01T05:54:46.261Z,2878.7273
2023-04-01T05:55:47.147Z,2828.6592
2023-04-01T05:56:48.839Z,2794.9546
2023-04-01T05:57:49.805Z,2942.6428
2023-04-01T05:58:49.817Z,3466.7727
2023-04-01T05:59:50.066Z,4245.6816
2023-04-01T06:01:02.262Z,4092.1333
2023-04-01T06:01:52.159Z,2594.4707
2023-04-01T06:02:53.224Z,2542.1162
2023-04-01T06:03:53.262Z,2889.9756
2023-04-01T06:04:53.694Z,3042.9070
2023-04-01T06:05:55.420Z,3241.0000
2023-04-01T06:06:55.840Z,3365.9319
2023-04-01T06:08:06.210Z,3508.3076
2023-04-01T06:09:07.277Z,3870.1875
2023-04-01T06:10:08.257Z,4296.5952
2023-04-01T06:11:08.552Z,4344.2500
2023-04-01T06:12:09.844Z,4690.4771
2023-04-01T06:13:10.734Z,5399.5776
2023-04-01T06:14:11.709Z,6185.9775
2023-04-01T06:15:13.001Z,6111.1558
2023-04-01T06:16:13.106Z,4549.1816
2023-04-01T06:17:13.237Z,4014.8408
2023-04-01T06:18:14.200Z,3420.2327
2023-04-01T06:19:15.537Z,3466.8889
2023-04-01T06:20:16.515Z,3583.7334
2023-04-01T06:21:17.412Z,3732.5779
2023-04-01T06:22:18.712Z,4256.7554
2023-04-01T06:23:19.985Z,5733.3110
2023-04-01T06:24:21.090Z,5713.6221
2023-04-01T06:25:21.981Z,5300.0684
2023-04-01T06:26:22.631Z,5194.0454
2023-04-01T06:27:24.071Z,5194.9771
2023-04-01T06:28:23.884Z,5380.9302
2023-04-01T06:29:25.322Z,5210.0669
2023-04-01T06:30:25.314Z,5341.9536
2023-04-01T06:31:25.760Z,5492.0454
2023-04-01T06:32:45.040Z,5732.6045
2023-04-01T06:33:46.059Z,5779.5117
2023-04-01T06:34:46.801Z,5556.3184
2023-04-01T06:35:48.418Z,5753.3901
2023-04-01T06:36:48.438Z,6085.9302
2023-04-01T06:37:49.065Z,6322.2324
2023-04-01T06:38:50.766Z,6512.3716
2023-04-01T06:40:11.844Z,6999.2759
2023-04-01T06:41:12.236Z,6899.7188
2023-04-01T06:42:12.802Z,6697.6514
2023-04-01T06:43:16.667Z,6266.4092
2023-04-01T06:44:17.715Z,5991.5142
2023-04-01T06:45:18.225Z,5326.4331
2023-04-01T06:46:19.283Z,5163.1592
2023-04-01T06:47:19.913Z,5207.5000
2023-04-01T06:48:21.148Z,5255.2891
2023-04-01T06:49:22.438Z,5063.0669
2023-04-01T06:50:23.566Z,4890.0889
2023-04-01T06:51:24.940Z,5206.6890
2023-04-01T06:52:24.841Z,5410.0908
2023-04-01T06:53:25.818Z,5673.7778
2023-04-01T06:54:26.874Z,6182.4668
2023-04-01T06:55:27.938Z,6888.4888
2023-04-01T06:56:28.895Z,7086.2891
2023-04-01T06:57:29.347Z,7180.7954
2023-04-01T06:58:29.268Z,7342.9546
2023-04-01T06:59:30.313Z,7714.5776
2023-04-01T07:00:31.621Z,7663.3335
2023-04-01T07:01:31.709Z,7047.8408
2023-04-01T07:02:32.835Z,6763.3555
2023-04-01T07:03:34.323Z,6777.4443
2023-04-01T07:04:35.432Z,6457.2891
2023-04-01T07:05:35.476Z,5791.7046
2023-04-01T07:06:36.327Z,5196.4224
2023-04-01T07:07:37.401Z,5182.5332
2023-04-01T07:08:38.554Z,5246.7998
2023-04-01T07:09:39.421Z,5367.3110
2023-04-01T07:10:40.481Z,5681.0669
2023-04-01T07:11:41.452Z,5839.7334
2023-04-01T07:12:42.326Z,5984.3335
2023-04-01T07:13:43.389Z,6426.4888
2023-04-01T07:14:44.220Z,6413.7554
2023-04-01T07:15:44.357Z,5600.6362
2023-04-01T07:16:44.473Z,5881.1592
2023-04-01T07:17:45.487Z,5942.9775
2023-04-01T07:18:45.551Z,5137.6138
2023-04-01T07:19:46.604Z,4163.3110
2023-04-01T07:20:47.589Z,4331.4668
2023-04-01T07:21:48.721Z,4194.7554
2023-04-01T07:22:53.686Z,4055.0938
2023-04-01T07:23:54.319Z,3618.5581
2023-04-01T07:24:54.845Z,5443.0713
